sensor_id;sensor_type;location;lat;lon;timestamp;P1;durP1;ratioP1;P2;durP2;ratioP2
76115;SDS011;64847;45.778;12.802;2024-02-21T00:01:47;8.20;;;7.50;;
76115;SDS011;64847;45.778;12.802;2024-02-21T00:04:12;8.03;;;7.33;;
76115;SDS011;64847;45.778;12.802;2024-02-21T00:06:38;7.63;;;6.93;;
76115;SDS011;64847;45.778;12.802;2024-02-21T00:09:03;7.50;;;6.80;;
76115;SDS011;64847;45.778;12.802;2024-02-21T00:11:29;7.10;;;6.50;;
76115;SDS011;64847;45.778;12.802;2024-02-21T00:13:54;7.00;;;6.40;;
76115;SDS011;64847;45.778;12.802;2024-02-21T00:16:20;7.23;;;6.53;;
76115;SDS011;64847;45.778;12.802;2024-02-21T00:18:45;7.50;;;6.80;;
76115;SDS011;64847;45.778;12.802;2024-02-21T00:21:11;7.50;;;6.70;;
76115;SDS011;64847;45.778;12.802;2024-02-21T00:23:43;7.07;;;6.47;;
76115;SDS011;64847;45.778;12.802;2024-02-21T00:26:12;6.70;;;6.10;;
76115;SDS011;64847;45.778;12.802;2024-02-21T00:28:38;7.30;;;6.70;;
76115;SDS011;64847;45.778;12.802;2024-02-21T00:31:04;7.10;;;6.40;;
76115;SDS011;64847;45.778;12.802;2024-02-21T00:33:29;6.73;;;6.23;;
76115;SDS011;64847;45.778;12.802;2024-02-21T00:35:54;7.20;;;6.50;;
76115;SDS011;64847;45.778;12.802;2024-02-21T00:38:20;7.47;;;6.77;;
76115;SDS011;64847;45.778;12.802;2024-02-21T00:40:45;7.03;;;6.43;;
76115;SDS011;64847;45.778;12.802;2024-02-21T00:43:11;6.83;;;6.23;;
76115;SDS011;64847;45.778;12.802;2024-02-21T00:45:36;7.30;;;6.60;;
76115;SDS011;64847;45.778;12.802;2024-02-21T00:48:02;6.63;;;6.03;;
76115;SDS011;64847;45.778;12.802;2024-02-21T00:50:27;5.60;;;5.20;;
76115;SDS011;64847;45.778;12.802;2024-02-21T00:52:53;6.40;;;5.90;;
76115;SDS011;64847;45.778;12.802;2024-02-21T00:55:18;6.70;;;6.07;;
76115;SDS011;64847;45.778;12.802;2024-02-21T00:57:44;5.77;;;5.27;;
76115;SDS011;64847;45.778;12.802;2024-02-21T01:00:09;6.37;;;5.87;;
76115;SDS011;64847;45.778;12.802;2024-02-21T01:02:35;5.90;;;5.30;;
76115;SDS011;64847;45.778;12.802;2024-02-21T01:05:01;5.80;;;5.30;;
76115;SDS011;64847;45.778;12.802;2024-02-21T01:07:27;5.13;;;4.63;;
76115;SDS011;64847;45.778;12.802;2024-02-21T01:09:52;5.10;;;4.70;;
76115;SDS011;64847;45.778;12.802;2024-02-21T01:12:18;5.03;;;4.63;;
76115;SDS011;64847;45.778;12.802;2024-02-21T01:14:44;5.33;;;4.90;;
76115;SDS011;64847;45.778;12.802;2024-02-21T01:17:11;4.90;;;4.50;;
76115;SDS011;64847;45.778;12.802;2024-02-21T01:19:36;4.57;;;4.17;;
76115;SDS011;64847;45.778;12.802;2024-02-21T01:22:02;4.33;;;4.03;;
76115;SDS011;64847;45.778;12.802;2024-02-21T01:24:27;4.23;;;3.90;;
76115;SDS011;64847;45.778;12.802;2024-02-21T01:26:53;4.13;;;3.83;;
76115;SDS011;64847;45.778;12.802;2024-02-21T01:29:18;4.60;;;4.20;;
76115;SDS011;64847;45.778;12.802;2024-02-21T01:31:44;3.93;;;3.63;;
76115;SDS011;64847;45.778;12.802;2024-02-21T01:34:09;4.07;;;3.77;;
76115;SDS011;64847;45.778;12.802;2024-02-21T01:36:34;4.17;;;3.40;;
76115;SDS011;64847;45.778;12.802;2024-02-21T01:39:00;3.57;;;3.27;;
76115;SDS011;64847;45.778;12.802;2024-02-21T01:41:25;4.17;;;3.83;;
76115;SDS011;64847;45.778;12.802;2024-02-21T01:43:51;3.80;;;3.00;;
76115;SDS011;64847;45.778;12.802;2024-02-21T01:46:16;3.33;;;3.13;;
76115;SDS011;64847;45.778;12.802;2024-02-21T01:48:42;3.37;;;3.10;;
76115;SDS011;64847;45.778;12.802;2024-02-21T01:51:07;3.27;;;3.07;;
76115;SDS011;64847;45.778;12.802;2024-02-21T01:53:34;2.93;;;2.73;;
76115;SDS011;64847;45.778;12.802;2024-02-21T01:56:02;3.53;;;3.27;;
76115;SDS011;64847;45.778;12.802;2024-02-21T01:58:27;3.20;;;3.00;;
76115;SDS011;64847;45.778;12.802;2024-02-21T02:00:54;3.80;;;3.50;;
76115;SDS011;64847;45.778;12.802;2024-02-21T02:03:21;3.70;;;3.40;;
76115;SDS011;64847;45.778;12.802;2024-02-21T02:05:47;3.27;;;3.07;;
76115;SDS011;64847;45.778;12.802;2024-02-21T02:08:18;3.83;;;3.47;;
76115;SDS011;64847;45.778;12.802;2024-02-21T02:10:44;3.43;;;3.23;;
76115;SDS011;64847;45.778;12.802;2024-02-21T02:13:10;4.00;;;3.70;;
76115;SDS011;64847;45.778;12.802;2024-02-21T02:18:08;3.80;;;3.50;;
76115;SDS011;64847;45.778;12.802;2024-02-21T02:20:34;3.67;;;3.37;;
76115;SDS011;64847;45.778;12.802;2024-02-21T02:23:01;4.50;;;3.43;;
76115;SDS011;64847;45.778;12.802;2024-02-21T02:25:30;3.67;;;3.37;;
76115;SDS011;64847;45.778;12.802;2024-02-21T02:27:56;3.80;;;3.40;;
76115;SDS011;64847;45.778;12.802;2024-02-21T02:30:21;4.00;;;3.20;;
76115;SDS011;64847;45.778;12.802;2024-02-21T02:32:47;3.23;;;3.03;;
76115;SDS011;64847;45.778;12.802;2024-02-21T02:35:12;5.57;;;3.80;;
76115;SDS011;64847;45.778;12.802;2024-02-21T02:37:38;3.30;;;3.00;;
76115;SDS011;64847;45.778;12.802;2024-02-21T02:40:06;3.37;;;3.00;;
76115;SDS011;64847;45.778;12.802;2024-02-21T02:42:32;2.93;;;2.73;;
76115;SDS011;64847;45.778;12.802;2024-02-21T02:44:58;3.17;;;2.97;;
76115;SDS011;64847;45.778;12.802;2024-02-21T02:47:23;3.00;;;2.80;;
76115;SDS011;64847;45.778;12.802;2024-02-21T02:49:49;3.20;;;3.00;;
76115;SDS011;64847;45.778;12.802;2024-02-21T02:52:16;2.70;;;2.60;;
76115;SDS011;64847;45.778;12.802;2024-02-21T02:54:42;3.10;;;2.90;;
76115;SDS011;64847;45.778;12.802;2024-02-21T02:57:08;3.40;;;3.10;;
76115;SDS011;64847;45.778;12.802;2024-02-21T02:59:34;3.23;;;3.00;;
76115;SDS011;64847;45.778;12.802;2024-02-21T03:01:59;2.80;;;2.60;;
76115;SDS011;64847;45.778;12.802;2024-02-21T03:04:25;2.67;;;2.47;;
76115;SDS011;64847;45.778;12.802;2024-02-21T03:06:50;3.00;;;2.77;;
76115;SDS011;64847;45.778;12.802;2024-02-21T03:09:15;2.83;;;2.63;;
76115;SDS011;64847;45.778;12.802;2024-02-21T03:11:42;2.80;;;2.60;;
76115;SDS011;64847;45.778;12.802;2024-02-21T03:14:09;2.73;;;2.53;;
76115;SDS011;64847;45.778;12.802;2024-02-21T03:16:35;3.00;;;2.70;;
76115;SDS011;64847;45.778;12.802;2024-02-21T03:19:00;2.40;;;2.27;;
76115;SDS011;64847;45.778;12.802;2024-02-21T03:21:25;2.70;;;2.47;;
76115;SDS011;64847;45.778;12.802;2024-02-21T03:23:51;3.07;;;2.40;;
76115;SDS011;64847;45.778;12.802;2024-02-21T03:26:16;3.43;;;2.50;;
76115;SDS011;64847;45.778;12.802;2024-02-21T03:28:42;2.87;;;2.67;;
76115;SDS011;64847;45.778;12.802;2024-02-21T03:31:13;2.53;;;2.33;;
76115;SDS011;64847;45.778;12.802;2024-02-21T03:33:39;2.63;;;2.43;;
76115;SDS011;64847;45.778;12.802;2024-02-21T03:36:12;2.43;;;2.30;;
76115;SDS011;64847;45.778;12.802;2024-02-21T03:38:38;2.40;;;2.20;;
76115;SDS011;64847;45.778;12.802;2024-02-21T03:41:03;2.40;;;2.30;;
76115;SDS011;64847;45.778;12.802;2024-02-21T03:43:29;2.30;;;2.20;;
76115;SDS011;64847;45.778;12.802;2024-02-21T03:45:54;2.00;;;1.90;;
76115;SDS011;64847;45.778;12.802;2024-02-21T03:48:19;2.37;;;2.27;;
76115;SDS011;64847;45.778;12.802;2024-02-21T03:50:45;2.40;;;2.30;;
76115;SDS011;64847;45.778;12.802;2024-02-21T03:53:11;2.37;;;2.17;;
76115;SDS011;64847;45.778;12.802;2024-02-21T03:55:37;2.20;;;2.10;;
76115;SDS011;64847;45.778;12.802;2024-02-21T03:58:02;2.57;;;2.00;;
76115;SDS011;64847;45.778;12.802;2024-02-21T04:00:28;2.13;;;2.03;;
76115;SDS011;64847;45.778;12.802;2024-02-21T04:02:53;1.90;;;1.80;;
76115;SDS011;64847;45.778;12.802;2024-02-21T04:05:20;2.13;;;2.03;;
76115;SDS011;64847;45.778;12.802;2024-02-21T04:07:46;2.30;;;2.10;;
76115;SDS011;64847;45.778;12.802;2024-02-21T04:10:12;1.80;;;1.70;;
76115;SDS011;64847;45.778;12.802;2024-02-21T04:12:37;2.23;;;1.77;;
76115;SDS011;64847;45.778;12.802;2024-02-21T04:15:03;1.67;;;1.57;;
76115;SDS011;64847;45.778;12.802;2024-02-21T04:17:29;2.03;;;1.80;;
76115;SDS011;64847;45.778;12.802;2024-02-21T04:20:00;1.80;;;1.70;;
76115;SDS011;64847;45.778;12.802;2024-02-21T04:22:30;2.20;;;1.80;;
76115;SDS011;64847;45.778;12.802;2024-02-21T04:24:57;1.80;;;1.70;;
76115;SDS011;64847;45.778;12.802;2024-02-21T04:27:22;1.50;;;1.40;;
76115;SDS011;64847;45.778;12.802;2024-02-21T04:29:47;1.77;;;1.67;;
76115;SDS011;64847;45.778;12.802;2024-02-21T04:32:13;1.67;;;1.57;;
76115;SDS011;64847;45.778;12.802;2024-02-21T04:34:40;2.07;;;1.67;;
76115;SDS011;64847;45.778;12.802;2024-02-21T04:37:06;1.40;;;1.40;;
76115;SDS011;64847;45.778;12.802;2024-02-21T04:39:31;1.80;;;1.70;;
76115;SDS011;64847;45.778;12.802;2024-02-21T04:41:57;1.63;;;1.53;;
76115;SDS011;64847;45.778;12.802;2024-02-21T04:44:22;1.57;;;1.53;;
76115;SDS011;64847;45.778;12.802;2024-02-21T04:46:47;1.50;;;1.40;;
76115;SDS011;64847;45.778;12.802;2024-02-21T04:49:13;1.47;;;1.40;;
76115;SDS011;64847;45.778;12.802;2024-02-21T04:51:39;1.50;;;1.40;;
76115;SDS011;64847;45.778;12.802;2024-02-21T04:54:05;1.30;;;1.30;;
76115;SDS011;64847;45.778;12.802;2024-02-21T04:56:31;1.60;;;1.50;;
76115;SDS011;64847;45.778;12.802;2024-02-21T04:58:56;1.60;;;1.60;;
76115;SDS011;64847;45.778;12.802;2024-02-21T05:01:22;1.80;;;1.70;;
76115;SDS011;64847;45.778;12.802;2024-02-21T05:03:47;1.57;;;1.57;;
76115;SDS011;64847;45.778;12.802;2024-02-21T05:06:12;1.97;;;1.60;;
76115;SDS011;64847;45.778;12.802;2024-02-21T05:08:38;1.53;;;1.53;;
76115;SDS011;64847;45.778;12.802;2024-02-21T05:11:03;1.80;;;1.70;;
76115;SDS011;64847;45.778;12.802;2024-02-21T05:13:28;2.07;;;1.87;;
76115;SDS011;64847;45.778;12.802;2024-02-21T05:15:54;1.63;;;1.60;;
76115;SDS011;64847;45.778;12.802;2024-02-21T05:18:19;1.40;;;1.40;;
76115;SDS011;64847;45.778;12.802;2024-02-21T05:20:45;2.00;;;1.90;;
76115;SDS011;64847;45.778;12.802;2024-02-21T05:23:11;4.40;;;1.83;;
76115;SDS011;64847;45.778;12.802;2024-02-21T05:25:37;1.83;;;1.73;;
76115;SDS011;64847;45.778;12.802;2024-02-21T05:28:02;2.30;;;1.60;;
76115;SDS011;64847;45.778;12.802;2024-02-21T05:30:28;1.70;;;1.60;;
76115;SDS011;64847;45.778;12.802;2024-02-21T05:32:54;1.70;;;1.60;;
76115;SDS011;64847;45.778;12.802;2024-02-21T05:35:24;1.77;;;1.67;;
76115;SDS011;64847;45.778;12.802;2024-02-21T05:37:51;3.97;;;1.63;;
76115;SDS011;64847;45.778;12.802;2024-02-21T05:40:17;1.57;;;1.47;;
76115;SDS011;64847;45.778;12.802;2024-02-21T05:42:43;1.87;;;1.50;;
76115;SDS011;64847;45.778;12.802;2024-02-21T05:45:09;1.57;;;1.50;;
76115;SDS011;64847;45.778;12.802;2024-02-21T05:47:35;1.40;;;1.40;;
76115;SDS011;64847;45.778;12.802;2024-02-21T05:50:00;1.67;;;1.57;;
76115;SDS011;64847;45.778;12.802;2024-02-21T05:52:26;1.70;;;1.60;;
76115;SDS011;64847;45.778;12.802;2024-02-21T05:54:51;1.93;;;1.83;;
76115;SDS011;64847;45.778;12.802;2024-02-21T05:57:17;1.93;;;1.80;;
76115;SDS011;64847;45.778;12.802;2024-02-21T05:59:43;1.70;;;1.60;;
76115;SDS011;64847;45.778;12.802;2024-02-21T06:02:08;1.70;;;1.60;;
76115;SDS011;64847;45.778;12.802;2024-02-21T06:04:34;1.97;;;1.87;;
76115;SDS011;64847;45.778;12.802;2024-02-21T06:07:00;2.10;;;2.00;;
76115;SDS011;64847;45.778;12.802;2024-02-21T06:09:27;1.73;;;1.63;;
76115;SDS011;64847;45.778;12.802;2024-02-21T06:11:52;1.80;;;1.70;;
76115;SDS011;64847;45.778;12.802;2024-02-21T06:14:18;1.67;;;1.57;;
76115;SDS011;64847;45.778;12.802;2024-02-21T06:16:43;1.37;;;1.37;;
76115;SDS011;64847;45.778;12.802;2024-02-21T06:19:09;1.33;;;1.33;;
76115;SDS011;64847;45.778;12.802;2024-02-21T06:21:35;1.90;;;1.80;;
76115;SDS011;64847;45.778;12.802;2024-02-21T06:24:00;1.73;;;1.63;;
76115;SDS011;64847;45.778;12.802;2024-02-21T06:26:26;1.90;;;1.80;;
76115;SDS011;64847;45.778;12.802;2024-02-21T06:28:51;1.43;;;1.43;;
76115;SDS011;64847;45.778;12.802;2024-02-21T06:31:16;1.50;;;1.50;;
76115;SDS011;64847;45.778;12.802;2024-02-21T06:33:42;1.70;;;1.60;;
76115;SDS011;64847;45.778;12.802;2024-02-21T06:36:08;1.70;;;1.60;;
76115;SDS011;64847;45.778;12.802;2024-02-21T06:38:33;1.67;;;1.57;;
76115;SDS011;64847;45.778;12.802;2024-02-21T06:40:59;2.77;;;1.67;;
76115;SDS011;64847;45.778;12.802;2024-02-21T06:43:25;1.50;;;1.40;;
76115;SDS011;64847;45.778;12.802;2024-02-21T06:45:51;1.40;;;1.30;;
76115;SDS011;64847;45.778;12.802;2024-02-21T06:48:17;1.57;;;1.40;;
76115;SDS011;64847;45.778;12.802;2024-02-21T06:50:43;1.60;;;1.50;;
76115;SDS011;64847;45.778;12.802;2024-02-21T06:53:09;1.80;;;1.70;;
76115;SDS011;64847;45.778;12.802;2024-02-21T06:55:34;2.27;;;1.63;;
76115;SDS011;64847;45.778;12.802;2024-02-21T06:58:00;1.87;;;1.60;;
76115;SDS011;64847;45.778;12.802;2024-02-21T07:00:27;1.70;;;1.60;;
76115;SDS011;64847;45.778;12.802;2024-02-21T07:02:56;1.70;;;1.60;;
76115;SDS011;64847;45.778;12.802;2024-02-21T07:05:23;1.50;;;1.40;;
76115;SDS011;64847;45.778;12.802;2024-02-21T07:07:52;1.60;;;1.50;;
76115;SDS011;64847;45.778;12.802;2024-02-21T07:10:18;1.53;;;1.50;;
76115;SDS011;64847;45.778;12.802;2024-02-21T07:12:43;1.83;;;1.70;;
76115;SDS011;64847;45.778;12.802;2024-02-21T07:15:09;2.20;;;1.90;;
76115;SDS011;64847;45.778;12.802;2024-02-21T07:17:34;1.80;;;1.70;;
76115;SDS011;64847;45.778;12.802;2024-02-21T07:20:00;2.20;;;1.73;;
76115;SDS011;64847;45.778;12.802;2024-02-21T07:22:26;1.80;;;1.70;;
76115;SDS011;64847;45.778;12.802;2024-02-21T07:24:52;1.47;;;1.43;;
76115;SDS011;64847;45.778;12.802;2024-02-21T07:27:17;1.97;;;1.80;;
76115;SDS011;64847;45.778;12.802;2024-02-21T07:29:43;1.77;;;1.67;;
76115;SDS011;64847;45.778;12.802;2024-02-21T07:32:12;1.83;;;1.70;;
76115;SDS011;64847;45.778;12.802;2024-02-21T07:34:39;1.90;;;1.80;;
76115;SDS011;64847;45.778;12.802;2024-02-21T07:37:05;2.10;;;1.70;;
76115;SDS011;64847;45.778;12.802;2024-02-21T07:39:30;1.77;;;1.67;;
76115;SDS011;64847;45.778;12.802;2024-02-21T07:41:56;2.07;;;1.97;;
76115;SDS011;64847;45.778;12.802;2024-02-21T07:44:21;2.20;;;1.70;;
76115;SDS011;64847;45.778;12.802;2024-02-21T07:46:47;1.83;;;1.73;;
76115;SDS011;64847;45.778;12.802;2024-02-21T07:49:12;2.10;;;1.90;;
76115;SDS011;64847;45.778;12.802;2024-02-21T07:51:37;1.92;;;1.83;;
76115;SDS011;64847;45.778;12.802;2024-02-21T07:54:03;2.25;;;2.10;;
76115;SDS011;64847;45.778;12.802;2024-02-21T07:56:29;2.03;;;1.83;;
76115;SDS011;64847;45.778;12.802;2024-02-21T07:58:55;2.17;;;2.08;;
76115;SDS011;64847;45.778;12.802;2024-02-21T08:01:20;1.98;;;1.88;;
76115;SDS011;64847;45.778;12.802;2024-02-21T08:03:46;2.58;;;2.17;;
76115;SDS011;64847;45.778;12.802;2024-02-21T08:06:11;2.17;;;2.08;;
76115;SDS011;64847;45.778;12.802;2024-02-21T08:08:38;2.42;;;2.03;;
76115;SDS011;64847;45.778;12.802;2024-02-21T08:11:03;3.17;;;2.50;;
76115;SDS011;64847;45.778;12.802;2024-02-21T08:13:29;2.75;;;2.60;;
76115;SDS011;64847;45.778;12.802;2024-02-21T08:15:57;2.10;;;2.00;;
76115;SDS011;64847;45.778;12.802;2024-02-21T08:18:25;2.22;;;2.13;;
76115;SDS011;64847;45.778;12.802;2024-02-21T08:20:50;2.40;;;2.30;;
76115;SDS011;64847;45.778;12.802;2024-02-21T08:23:16;2.50;;;2.30;;
76115;SDS011;64847;45.778;12.802;2024-02-21T08:25:42;2.38;;;2.20;;
76115;SDS011;64847;45.778;12.802;2024-02-21T08:28:07;2.08;;;1.98;;
76115;SDS011;64847;45.778;12.802;2024-02-21T08:30:33;2.30;;;2.20;;
76115;SDS011;64847;45.778;12.802;2024-02-21T08:32:59;2.47;;;2.28;;
76115;SDS011;64847;45.778;12.802;2024-02-21T08:35:24;2.20;;;1.98;;
76115;SDS011;64847;45.778;12.802;2024-02-21T08:37:49;2.25;;;2.15;;
76115;SDS011;64847;45.778;12.802;2024-02-21T08:40:15;2.00;;;1.90;;
76115;SDS011;64847;45.778;12.802;2024-02-21T08:42:46;2.13;;;2.03;;
76115;SDS011;64847;45.778;12.802;2024-02-21T08:45:12;2.13;;;2.03;;
76115;SDS011;64847;45.778;12.802;2024-02-21T08:47:40;2.20;;;2.10;;
76115;SDS011;64847;45.778;12.802;2024-02-21T08:50:06;1.90;;;1.80;;
76115;SDS011;64847;45.778;12.802;2024-02-21T08:52:32;1.80;;;1.70;;
76115;SDS011;64847;45.778;12.802;2024-02-21T08:54:59;1.58;;;1.45;;
76115;SDS011;64847;45.778;12.802;2024-02-21T08:57:24;1.77;;;1.67;;
76115;SDS011;64847;45.778;12.802;2024-02-21T08:59:50;2.25;;;1.63;;
76115;SDS011;64847;45.778;12.802;2024-02-21T09:02:15;1.60;;;1.60;;
76115;SDS011;64847;45.778;12.802;2024-02-21T09:04:41;1.75;;;1.65;;
76115;SDS011;64847;45.778;12.802;2024-02-21T09:07:06;1.58;;;1.55;;
76115;SDS011;64847;45.778;12.802;2024-02-21T09:09:32;1.77;;;1.67;;
76115;SDS011;64847;45.778;12.802;2024-02-21T09:11:58;1.45;;;1.40;;
76115;SDS011;64847;45.778;12.802;2024-02-21T09:14:30;1.55;;;1.55;;
76115;SDS011;64847;45.778;12.802;2024-02-21T09:16:59;1.90;;;1.80;;
76115;SDS011;64847;45.778;12.802;2024-02-21T09:19:24;1.42;;;1.42;;
76115;SDS011;64847;45.778;12.802;2024-02-21T09:21:50;1.73;;;1.58;;
76115;SDS011;64847;45.778;12.802;2024-02-21T09:24:15;1.65;;;1.50;;
76115;SDS011;64847;45.778;12.802;2024-02-21T09:26:41;2.10;;;2.00;;
76115;SDS011;64847;45.778;12.802;2024-02-21T09:29:06;2.10;;;2.00;;
76115;SDS011;64847;45.778;12.802;2024-02-21T09:31:31;2.60;;;2.40;;
76115;SDS011;64847;45.778;12.802;2024-02-21T09:33:57;2.53;;;2.42;;
76115;SDS011;64847;45.778;12.802;2024-02-21T09:36:22;2.75;;;2.50;;
76115;SDS011;64847;45.778;12.802;2024-02-21T09:38:49;2.78;;;2.58;;
76115;SDS011;64847;45.778;12.802;2024-02-21T09:41:15;2.47;;;2.38;;
76115;SDS011;64847;45.778;12.802;2024-02-21T09:43:44;2.38;;;2.17;;
76115;SDS011;64847;45.778;12.802;2024-02-21T09:46:16;2.20;;;2.00;;
76115;SDS011;64847;45.778;12.802;2024-02-21T09:48:52;2.15;;;2.05;;
76115;SDS011;64847;45.778;12.802;2024-02-21T09:51:34;2.03;;;1.77;;
76115;SDS011;64847;45.778;12.802;2024-02-21T09:54:00;1.75;;;1.70;;
76115;SDS011;64847;45.778;12.802;2024-02-21T09:56:28;1.77;;;1.67;;
76115;SDS011;64847;45.778;12.802;2024-02-21T09:58:53;2.08;;;1.83;;
76115;SDS011;64847;45.778;12.802;2024-02-21T10:01:19;1.60;;;1.60;;
76115;SDS011;64847;45.778;12.802;2024-02-21T10:03:44;2.08;;;1.88;;
76115;SDS011;64847;45.778;12.802;2024-02-21T10:06:10;2.88;;;1.85;;
76115;SDS011;64847;45.778;12.802;2024-02-21T10:08:35;1.80;;;1.70;;
76115;SDS011;64847;45.778;12.802;2024-02-21T10:11:01;1.85;;;1.75;;
76115;SDS011;64847;45.778;12.802;2024-02-21T10:13:29;1.50;;;1.50;;
76115;SDS011;64847;45.778;12.802;2024-02-21T10:16:05;1.60;;;1.60;;
76115;SDS011;64847;45.778;12.802;2024-02-21T10:18:32;1.70;;;1.60;;
76115;SDS011;64847;45.778;12.802;2024-02-21T10:21:00;1.75;;;1.65;;
76115;SDS011;64847;45.778;12.802;2024-02-21T10:23:29;1.65;;;1.50;;
76115;SDS011;64847;45.778;12.802;2024-02-21T10:26:04;1.70;;;1.60;;
76115;SDS011;64847;45.778;12.802;2024-02-21T10:28:30;1.83;;;1.73;;
76115;SDS011;64847;45.778;12.802;2024-02-21T10:30:56;1.90;;;1.80;;
76115;SDS011;64847;45.778;12.802;2024-02-21T10:33:22;1.70;;;1.70;;
76115;SDS011;64847;45.778;12.802;2024-02-21T10:35:49;1.70;;;1.70;;
76115;SDS011;64847;45.778;12.802;2024-02-21T10:38:14;1.58;;;1.50;;
76115;SDS011;64847;45.778;12.802;2024-02-21T10:40:40;1.58;;;1.58;;
76115;SDS011;64847;45.778;12.802;2024-02-21T10:43:05;1.70;;;1.60;;
76115;SDS011;64847;45.778;12.802;2024-02-21T10:45:37;1.60;;;1.60;;
76115;SDS011;64847;45.778;12.802;2024-02-21T10:48:08;1.73;;;1.73;;
76115;SDS011;64847;45.778;12.802;2024-02-21T10:59:02;1.58;;;1.58;;
76115;SDS011;64847;45.778;12.802;2024-02-21T11:01:29;2.00;;;1.90;;
76115;SDS011;64847;45.778;12.802;2024-02-21T11:03:57;2.00;;;1.90;;
76115;SDS011;64847;45.778;12.802;2024-02-21T11:06:23;1.92;;;1.83;;
76115;SDS011;64847;45.778;12.802;2024-02-21T11:09:02;1.95;;;1.85;;
76115;SDS011;64847;45.778;12.802;2024-02-21T11:11:29;1.70;;;1.60;;
76115;SDS011;64847;45.778;12.802;2024-02-21T11:14:04;1.70;;;1.60;;
76115;SDS011;64847;45.778;12.802;2024-02-21T11:16:49;1.95;;;1.85;;
76115;SDS011;64847;45.778;12.802;2024-02-21T11:21:43;2.05;;;1.95;;
76115;SDS011;64847;45.778;12.802;2024-02-21T11:24:08;1.73;;;1.65;;
76115;SDS011;64847;45.778;12.802;2024-02-21T11:26:36;1.45;;;1.45;;
76115;SDS011;64847;45.778;12.802;2024-02-21T11:29:02;1.70;;;1.70;;
76115;SDS011;64847;45.778;12.802;2024-02-21T11:31:41;1.90;;;1.80;;
76115;SDS011;64847;45.778;12.802;2024-02-21T11:34:10;2.00;;;1.90;;
76115;SDS011;64847;45.778;12.802;2024-02-21T11:36:36;2.05;;;1.95;;
76115;SDS011;64847;45.778;12.802;2024-02-21T11:39:12;1.83;;;1.80;;
76115;SDS011;64847;45.778;12.802;2024-02-21T11:41:37;1.85;;;1.73;;
76115;SDS011;64847;45.778;12.802;2024-02-21T11:44:03;1.63;;;1.63;;
76115;SDS011;64847;45.778;12.802;2024-02-21T11:46:28;1.83;;;1.83;;
76115;SDS011;64847;45.778;12.802;2024-02-21T11:48:54;2.00;;;1.90;;
76115;SDS011;64847;45.778;12.802;2024-02-21T11:51:26;2.17;;;2.08;;
76115;SDS011;64847;45.778;12.802;2024-02-21T11:53:54;2.13;;;2.03;;
76115;SDS011;64847;45.778;12.802;2024-02-21T11:56:20;2.00;;;2.00;;
76115;SDS011;64847;45.778;12.802;2024-02-21T11:58:46;2.17;;;2.08;;
76115;SDS011;64847;45.778;12.802;2024-02-21T12:01:12;1.60;;;1.60;;
76115;SDS011;64847;45.778;12.802;2024-02-21T12:03:38;2.20;;;2.10;;
76115;SDS011;64847;45.778;12.802;2024-02-21T12:06:06;3.35;;;2.72;;
76115;SDS011;64847;45.778;12.802;2024-02-21T12:08:42;5.85;;;3.30;;
76115;SDS011;64847;45.778;12.802;2024-02-21T12:11:17;4.18;;;2.90;;
76115;SDS011;64847;45.778;12.802;2024-02-21T12:13:59;3.25;;;2.95;;
76115;SDS011;64847;45.778;12.802;2024-02-21T12:16:26;4.45;;;3.10;;
76115;SDS011;64847;45.778;12.802;2024-02-21T12:18:53;4.30;;;3.15;;
76115;SDS011;64847;45.778;12.802;2024-02-21T12:21:19;2.92;;;2.67;;
76115;SDS011;64847;45.778;12.802;2024-02-21T12:23:44;3.15;;;2.47;;
76115;SDS011;64847;45.778;12.802;2024-02-21T12:26:12;2.92;;;2.30;;
76115;SDS011;64847;45.778;12.802;2024-02-21T12:28:37;2.38;;;2.28;;
76115;SDS011;64847;45.778;12.802;2024-02-21T12:31:03;2.25;;;2.15;;
76115;SDS011;64847;45.778;12.802;2024-02-21T12:33:29;2.72;;;2.53;;
76115;SDS011;64847;45.778;12.802;2024-02-21T12:35:55;2.20;;;2.08;;
76115;SDS011;64847;45.778;12.802;2024-02-21T12:38:20;2.20;;;2.10;;
76115;SDS011;64847;45.778;12.802;2024-02-21T12:40:46;2.03;;;1.92;;
76115;SDS011;64847;45.778;12.802;2024-02-21T12:43:11;2.00;;;1.90;;
76115;SDS011;64847;45.778;12.802;2024-02-21T12:45:36;1.55;;;1.55;;
76115;SDS011;64847;45.778;12.802;2024-02-21T12:48:02;1.58;;;1.58;;
76115;SDS011;64847;45.778;12.802;2024-02-21T12:50:29;1.73;;;1.63;;
76115;SDS011;64847;45.778;12.802;2024-02-21T12:52:56;1.90;;;1.80;;
76115;SDS011;64847;45.778;12.802;2024-02-21T12:55:21;2.05;;;1.95;;
76115;SDS011;64847;45.778;12.802;2024-02-21T12:57:47;1.67;;;1.67;;
76115;SDS011;64847;45.778;12.802;2024-02-21T13:00:12;1.73;;;1.73;;
76115;SDS011;64847;45.778;12.802;2024-02-21T13:02:39;1.80;;;1.70;;
76115;SDS011;64847;45.778;12.802;2024-02-21T13:05:04;1.80;;;1.80;;
76115;SDS011;64847;45.778;12.802;2024-02-21T13:07:30;2.10;;;2.00;;
76115;SDS011;64847;45.778;12.802;2024-02-21T13:09:57;1.70;;;1.70;;
76115;SDS011;64847;45.778;12.802;2024-02-21T13:12:22;2.10;;;2.00;;
76115;SDS011;64847;45.778;12.802;2024-02-21T13:14:48;2.40;;;2.30;;
76115;SDS011;64847;45.778;12.802;2024-02-21T13:17:13;2.25;;;2.15;;
76115;SDS011;64847;45.778;12.802;2024-02-21T13:19:40;2.50;;;2.40;;
76115;SDS011;64847;45.778;12.802;2024-02-21T13:22:05;2.42;;;2.13;;
76115;SDS011;64847;45.778;12.802;2024-02-21T13:24:31;2.33;;;2.22;;
76115;SDS011;64847;45.778;12.802;2024-02-21T13:26:57;2.00;;;1.90;;
76115;SDS011;64847;45.778;12.802;2024-02-21T13:29:22;2.30;;;2.20;;
76115;SDS011;64847;45.778;12.802;2024-02-21T13:31:47;2.60;;;2.50;;
76115;SDS011;64847;45.778;12.802;2024-02-21T13:34:14;2.90;;;2.80;;
76115;SDS011;64847;45.778;12.802;2024-02-21T13:36:40;2.75;;;2.55;;
76115;SDS011;64847;45.778;12.802;2024-02-21T13:39:06;2.10;;;2.00;;
76115;SDS011;64847;45.778;12.802;2024-02-21T13:41:33;2.22;;;2.13;;
76115;SDS011;64847;45.778;12.802;2024-02-21T13:43:58;2.50;;;2.40;;
76115;SDS011;64847;45.778;12.802;2024-02-21T13:46:25;2.65;;;2.55;;
76115;SDS011;64847;45.778;12.802;2024-02-21T13:48:52;2.40;;;2.20;;
76115;SDS011;64847;45.778;12.802;2024-02-21T13:51:19;2.50;;;2.40;;
76115;SDS011;64847;45.778;12.802;2024-02-21T13:53:45;2.58;;;2.47;;
76115;SDS011;64847;45.778;12.802;2024-02-21T13:56:10;2.53;;;2.42;;
76115;SDS011;64847;45.778;12.802;2024-02-21T13:58:36;2.47;;;2.28;;
76115;SDS011;64847;45.778;12.802;2024-02-21T14:01:02;2.47;;;2.28;;
76115;SDS011;64847;45.778;12.802;2024-02-21T14:03:28;2.17;;;2.08;;
76115;SDS011;64847;45.778;12.802;2024-02-21T14:05:53;3.13;;;2.92;;
76115;SDS011;64847;45.778;12.802;2024-02-21T14:08:19;2.60;;;2.40;;
76115;SDS011;64847;45.778;12.802;2024-02-21T14:10:45;2.42;;;2.33;;
76115;SDS011;64847;45.778;12.802;2024-02-21T14:13:10;2.20;;;2.10;;
76115;SDS011;64847;45.778;12.802;2024-02-21T14:15:36;2.40;;;2.30;;
76115;SDS011;64847;45.778;12.802;2024-02-21T14:18:04;2.70;;;2.53;;
76115;SDS011;64847;45.778;12.802;2024-02-21T14:20:34;3.08;;;2.88;;
76115;SDS011;64847;45.778;12.802;2024-02-21T14:22:59;2.92;;;2.80;;
76115;SDS011;64847;45.778;12.802;2024-02-21T14:25:24;2.97;;;2.78;;
76115;SDS011;64847;45.778;12.802;2024-02-21T14:27:50;2.60;;;2.50;;
76115;SDS011;64847;45.778;12.802;2024-02-21T14:30:16;2.70;;;2.60;;
76115;SDS011;64847;45.778;12.802;2024-02-21T14:32:43;3.00;;;2.88;;
76115;SDS011;64847;45.778;12.802;2024-02-21T14:35:09;3.53;;;3.22;;
76115;SDS011;64847;45.778;12.802;2024-02-21T14:37:34;3.72;;;3.42;;
76115;SDS011;64847;45.778;12.802;2024-02-21T14:40:00;4.05;;;3.75;;
76115;SDS011;64847;45.778;12.802;2024-02-21T14:42:25;3.80;;;3.50;;